Time;durP1;ratioP1;P1;durP2;ratioP2;P2;SDS_P1;SDS_P2;PMS_P1;PMS_P2;Temp;Humidity;BMP_temperature;BMP_pressure;BME280_temperature;BME280_humidity;BME280_pressure;Samples;Min_cycle;Max_cycle;Signal;HPM_P1;HPM_P2
2021/08/20 00:00:26;;;;;;;3.35;2.75;;;;;;;;;;4897879;29;20483;-66
2021/08/20 00:02:52;;;;;;;3.20;2.75;;;;;;;;;;4898102;29;20079;-65
2021/08/20 00:05:20;;;;;;;5.18;3.30;;;;;;;;;;4897978;29;20049;-66
2021/08/20 00:07:46;;;;;;;3.83;2.97;;;;;;;;;;4916460;29;20100;-66
2021/08/20 00:10:13;;;;;;;3.75;2.53;;;;;;;;;;4916562;29;20056;-66
2021/08/20 00:12:40;;;;;;;3.60;2.63;;;;;;;;;;4916631;29;20087;-65
2021/08/20 00:15:08;;;;;;;5.22;3.70;;;;;;;;;;4911704;29;20045;-66
2021/08/20 00:17:34;;;;;;;4.38;3.75;;;;;;;;;;4916133;29;20430;-66
2021/08/20 00:20:01;;;;;;;4.60;3.00;;;;;;;;;;4909126;29;20056;-65
2021/08/20 00:22:27;;;;;;;3.60;2.58;;;;;;;;;;4897521;29;20092;-65
2021/08/20 00:24:54;;;;;;;3.55;2.80;;;;;;;;;;4897582;29;20091;-65
2021/08/20 00:27:21;;;;;;;3.50;2.65;;;;;;;;;;4897513;29;20104;-65
2021/08/20 00:29:47;;;;;;;3.00;2.42;;;;;;;;;;4897303;29;20492;-65
2021/08/20 00:32:14;;;;;;;2.78;2.58;;;;;;;;;;4906082;29;20136;-65
2021/08/20 00:34:40;;;;;;;4.40;2.65;;;;;;;;;;4897329;29;20223;-66
2021/08/20 00:37:07;;;;;;;3.80;2.88;;;;;;;;;;4897375;29;20080;-65
2021/08/20 00:39:33;;;;;;;4.55;3.03;;;;;;;;;;4915678;29;20507;-66
2021/08/20 00:42:00;;;;;;;3.17;2.40;;;;;;;;;;4916055;29;20060;-66
2021/08/20 00:44:26;;;;;;;2.58;2.35;;;;;;;;;;4914896;29;20052;-66
2021/08/20 00:46:53;;;;;;;3.75;2.55;;;;;;;;;;4903714;29;20056;-65
2021/08/20 00:49:19;;;;;;;3.58;2.30;;;;;;;;;;4915763;29;20084;-66
2021/08/20 00:51:46;;;;;;;2.70;2.40;;;;;;;;;;4915906;29;20083;-66
2021/08/20 00:54:13;;;;;;;4.90;2.67;;;;;;;;;;4908775;29;20052;-65
2021/08/20 00:56:41;;;;;;;4.85;2.83;;;;;;;;;;4897020;29;20484;-65
2021/08/20 00:59:09;;;;;;;4.03;2.67;;;;;;;;;;4896827;29;20534;-65
2021/08/20 01:01:36;;;;;;;3.20;2.55;;;;;;;;;;4896671;29;20091;-66
2021/08/20 01:04:03;;;;;;;3.63;2.40;;;;;;;;;;4915951;29;20048;-65
2021/08/20 01:06:31;;;;;;;5.22;3.20;;;;;;;;;;4909633;29;20424;-66
2021/08/20 01:08:57;;;;;;;4.57;2.58;;;;;;;;;;4895444;29;20084;-66
2021/08/20 01:11:25;;;;;;;3.00;2.55;;;;;;;;;;4904084;29;20087;-66
2021/08/20 01:13:52;;;;;;;4.03;2.90;;;;;;;;;;4901418;29;20080;-65
2021/08/20 01:16:19;;;;;;;4.97;2.63;;;;;;;;;;4896760;29;20076;-66
2021/08/20 01:18:45;;;;;;;4.22;2.75;;;;;;;;;;4896493;29;20064;-66
2021/08/20 01:21:19;;;;;;;4.05;2.60;;;;;;;;;;4896682;29;20084;-66
2021/08/20 01:23:48;;;;;;;4.95;2.70;;;;;;;;;;4896732;29;20049;-66
2021/08/20 01:26:15;;;;;;;5.78;2.95;;;;;;;;;;4911506;29;20420;-66
2021/08/20 01:28:41;;;;;;;4.88;2.58;;;;;;;;;;4914983;29;20098;-66
2021/08/20 01:31:10;;;;;;;3.80;2.90;;;;;;;;;;4915051;29;20079;-66
2021/08/20 01:33:37;;;;;;;4.53;2.85;;;;;;;;;;4915343;29;20103;-66
2021/08/20 01:36:04;;;;;;;3.38;2.47;;;;;;;;;;4915631;29;20130;-65
2021/08/20 01:38:31;;;;;;;3.97;2.10;;;;;;;;;;4915379;29;20095;-66
2021/08/20 01:40:57;;;;;;;3.20;2.63;;;;;;;;;;4908264;29;20108;-65
2021/08/20 01:43:24;;;;;;;3.58;3.15;;;;;;;;;;4900741;29;20084;-66
2021/08/20 01:45:51;;;;;;;4.43;2.58;;;;;;;;;;4896463;29;20056;-66
2021/08/20 01:48:17;;;;;;;3.20;2.55;;;;;;;;;;4907676;29;20090;-66
2021/08/20 01:50:44;;;;;;;5.00;2.50;;;;;;;;;;4900944;29;20124;-65
2021/08/20 01:53:14;;;;;;;4.95;3.17;;;;;;;;;;4896590;29;20478;-66
2021/08/20 01:55:44;;;;;;;3.92;2.95;;;;;;;;;;4896322;29;20431;-66
2021/08/20 01:58:11;;;;;;;2.65;2.42;;;;;;;;;;4896400;29;20056;-66
2021/08/20 02:00:39;;;;;;;3.40;3.05;;;;;;;;;;4897725;29;20143;-66
2021/08/20 02:03:06;;;;;;;7.75;3.30;;;;;;;;;;4896724;29;20060;-66
2021/08/20 02:05:33;;;;;;;3.08;2.58;;;;;;;;;;4896291;29;20396;-65
2021/08/20 02:08:00;;;;;;;4.68;2.80;;;;;;;;;;4896964;29;20084;-66
2021/08/20 02:10:26;;;;;;;3.75;3.15;;;;;;;;;;4896052;29;20431;-65
2021/08/20 02:12:53;;;;;;;4.47;2.95;;;;;;;;;;4896325;29;20143;-65
2021/08/20 02:15:20;;;;;;;3.17;2.78;;;;;;;;;;4896283;29;20072;-65
2021/08/20 02:17:47;;;;;;;3.38;2.83;;;;;;;;;;4895970;29;20095;-65
2021/08/20 02:20:13;;;;;;;4.70;3.05;;;;;;;;;;4917812;23;20328;-66
2021/08/20 02:22:40;;;;;;;3.42;2.88;;;;;;;;;;4895999;29;20100;-66
2021/08/20 02:25:07;;;;;;;4.80;2.90;;;;;;;;;;4896193;29;20072;-65
2021/08/20 02:27:33;;;;;;;3.08;2.70;;;;;;;;;;4895943;29;20492;-66
2021/08/20 02:30:00;;;;;;;3.65;3.03;;;;;;;;;;4890902;29;20311;-66
2021/08/20 02:32:27;;;;;;;3.42;2.70;;;;;;;;;;4877386;29;20053;-66
2021/08/20 02:34:53;;;;;;;3.45;2.75;;;;;;;;;;4876132;29;20088;-66
2021/08/20 02:37:20;;;;;;;4.40;2.90;;;;;;;;;;4876276;29;20076;-65
2021/08/20 02:39:46;;;;;;;5.75;2.80;;;;;;;;;;4877347;29;20136;-66
2021/08/20 02:42:13;;;;;;;3.40;2.65;;;;;;;;;;4877364;29;20492;-66
2021/08/20 02:44:39;;;;;;;3.17;2.83;;;;;;;;;;4879820;29;20049;-66
2021/08/20 02:47:06;;;;;;;3.00;2.65;;;;;;;;;;4880788;29;20064;-66
2021/08/20 02:49:32;;;;;;;4.90;3.00;;;;;;;;;;4880463;29;20088;-66
2021/08/20 02:51:59;;;;;;;5.25;2.85;;;;;;;;;;4860290;29;20088;-66
2021/08/20 02:54:25;;;;;;;8.23;3.10;;;;;;;;;;4862192;29;20077;-66
2021/08/20 02:56:52;;;;;;;4.95;2.85;;;;;;;;;;4861965;29;20116;-66
2021/08/20 02:59:18;;;;;;;6.68;4.28;;;;;;;;;;4863644;29;20076;-66
2021/08/20 03:01:48;;;;;;;3.35;2.58;;;;;;;;;;4880482;29;20052;-66
2021/08/20 03:04:16;;;;;;;4.40;3.10;;;;;;;;;;4879344;29;20052;-66
2021/08/20 03:06:43;;;;;;;3.08;2.45;;;;;;;;;;4878998;29;20095;-66
2021/08/20 03:09:11;;;;;;;3.45;2.90;;;;;;;;;;4879583;29;20211;-66
2021/08/20 03:11:38;;;;;;;3.10;2.80;;;;;;;;;;4861506;29;20054;-66
2021/08/20 03:14:05;;;;;;;4.65;3.00;;;;;;;;;;4860538;29;20049;-66
2021/08/20 03:16:32;;;;;;;4.45;3.50;;;;;;;;;;4861273;29;20049;-66
2021/08/20 03:18:58;;;;;;;3.90;3.03;;;;;;;;;;4861389;29;20497;-66
2021/08/20 03:21:25;;;;;;;4.00;3.60;;;;;;;;;;4878593;29;20487;-66
2021/08/20 03:23:52;;;;;;;4.40;3.10;;;;;;;;;;4880053;29;20105;-66
2021/08/20 03:26:18;;;;;;;5.25;3.00;;;;;;;;;;4880089;29;20087;-66
2021/08/20 03:28:45;;;;;;;4.35;2.97;;;;;;;;;;4878532;29;20084;-66
2021/08/20 03:31:11;;;;;;;3.25;2.85;;;;;;;;;;4878350;29;20049;-66
2021/08/20 03:33:38;;;;;;;3.17;2.80;;;;;;;;;;4879532;29;20535;-65
2021/08/20 03:36:05;;;;;;;3.83;2.67;;;;;;;;;;4879635;29;20091;-66
2021/08/20 03:38:32;;;;;;;4.35;3.00;;;;;;;;;;4879527;29;20053;-66
2021/08/20 03:40:58;;;;;;;4.38;2.83;;;;;;;;;;4863079;29;20500;-65
2021/08/20 03:43:25;;;;;;;4.32;2.75;;;;;;;;;;4878300;29;20548;-66
2021/08/20 03:45:51;;;;;;;4.80;3.35;;;;;;;;;;4879619;29;20085;-66
2021/08/20 03:48:18;;;;;;;3.78;2.70;;;;;;;;;;4879557;29;20481;-66
2021/08/20 03:50:45;;;;;;;2.80;2.58;;;;;;;;;;4879282;29;20520;-66
2021/08/20 03:53:11;;;;;;;4.22;2.63;;;;;;;;;;4879448;29;20056;-66
2021/08/20 03:55:38;;;;;;;3.15;2.58;;;;;;;;;;4878791;29;20052;-66
2021/08/20 03:58:04;;;;;;;3.10;2.75;;;;;;;;;;4879180;29;20057;-66
2021/08/20 04:00:31;;;;;;;6.10;3.13;;;;;;;;;;4879076;29;20053;-66
2021/08/20 04:02:57;;;;;;;4.18;3.03;;;;;;;;;;4879340;29;20132;-66
2021/08/20 04:05:25;;;;;;;4.93;2.78;;;;;;;;;;4878038;29;20068;-66
2021/08/20 04:07:52;;;;;;;4.43;3.00;;;;;;;;;;4879173;29;20110;-66
2021/08/20 04:10:18;;;;;;;3.50;3.05;;;;;;;;;;4880328;29;20053;-66
2021/08/20 04:12:45;;;;;;;3.72;2.65;;;;;;;;;;4877949;29;20080;-67
2021/08/20 04:15:11;;;;;;;5.93;3.20;;;;;;;;;;4877805;29;20465;-66
2021/08/20 04:17:38;;;;;;;4.82;2.88;;;;;;;;;;4877472;29;20101;-66
2021/08/20 04:20:06;;;;;;;4.30;2.67;;;;;;;;;;4877740;29;20132;-66
2021/08/20 04:22:32;;;;;;;6.30;3.38;;;;;;;;;;4878892;29;20053;-66
2021/08/20 04:24:59;;;;;;;4.05;3.53;;;;;;;;;;4858894;29;20502;-66
2021/08/20 04:27:25;;;;;;;4.88;3.97;;;;;;;;;;4860088;29;20109;-66
2021/08/20 04:29:52;;;;;;;3.63;2.97;;;;;;;;;;4867028;29;20473;-66
2021/08/20 04:32:19;;;;;;;3.35;2.70;;;;;;;;;;4878865;29;20477;-66
2021/08/20 04:34:45;;;;;;;4.20;2.80;;;;;;;;;;4878512;29;20077;-66
2021/08/20 04:37:12;;;;;;;2.72;2.50;;;;;;;;;;4878549;29;20076;-66
2021/08/20 04:39:38;;;;;;;3.47;2.80;;;;;;;;;;4878560;29;20057;-66
2021/08/20 04:42:05;;;;;;;4.53;2.47;;;;;;;;;;4878588;29;20460;-66
2021/08/20 04:44:32;;;;;;;5.95;3.00;;;;;;;;;;4878325;29;20049;-66
2021/08/20 04:46:58;;;;;;;6.10;2.38;;;;;;;;;;4874061;29;20082;-66
2021/08/20 04:49:25;;;;;;;6.93;2.92;;;;;;;;;;4859787;29;20106;-66
2021/08/20 04:51:52;;;;;;;4.35;2.30;;;;;;;;;;4860280;29;20517;-66
2021/08/20 04:54:18;;;;;;;5.97;3.08;;;;;;;;;;4861060;29;20528;-66
2021/08/20 04:56:46;;;;;;;5.47;2.92;;;;;;;;;;4878258;29;20485;-66
2021/08/20 04:59:13;;;;;;;4.65;2.83;;;;;;;;;;4878374;29;20085;-66
2021/08/20 05:01:39;;;;;;;3.08;2.58;;;;;;;;;;4878230;29;20052;-66
2021/08/20 05:04:06;;;;;;;4.18;2.55;;;;;;;;;;4878605;29;20091;-66
2021/08/20 05:06:33;;;;;;;4.18;2.85;;;;;;;;;;4877295;29;20561;-66
2021/08/20 05:09:00;;;;;;;4.20;2.67;;;;;;;;;;4877088;29;20109;-67
2021/08/20 05:11:27;;;;;;;3.63;2.45;;;;;;;;;;4876938;29;20512;-66
2021/08/20 05:13:55;;;;;;;5.40;3.15;;;;;;;;;;4877032;29;20095;-66
2021/08/20 05:16:21;;;;;;;3.33;2.58;;;;;;;;;;4878169;29;20482;-66
2021/08/20 05:18:48;;;;;;;5.28;3.00;;;;;;;;;;4877975;29;20060;-66
2021/08/20 05:21:15;;;;;;;5.55;2.80;;;;;;;;;;4877835;29;20088;-66
2021/08/20 05:23:41;;;;;;;6.03;3.10;;;;;;;;;;4878048;29;20493;-66
2021/08/20 05:26:08;;;;;;;3.47;2.70;;;;;;;;;;4878161;29;20501;-66
2021/08/20 05:28:34;;;;;;;4.50;2.90;;;;;;;;;;4877864;29;20568;-66
2021/08/20 05:31:01;;;;;;;4.68;2.47;;;;;;;;;;4877117;29;20057;-66
2021/08/20 05:33:28;;;;;;;3.15;2.35;;;;;;;;;;4892104;29;20087;-66
2021/08/20 05:35:54;;;;;;;5.05;2.40;;;;;;;;;;4878005;29;20084;-66
2021/08/20 05:38:22;;;;;;;4.78;3.05;;;;;;;;;;4878021;29;20116;-66
2021/08/20 05:40:49;;;;;;;6.13;2.60;;;;;;;;;;4876564;29;20069;-66
2021/08/20 05:43:15;;;;;;;3.58;2.70;;;;;;;;;;4876760;29;20121;-66
2021/08/20 05:45:42;;;;;;;5.13;2.38;;;;;;;;;;4877925;29;20113;-66
2021/08/20 05:48:09;;;;;;;4.57;2.40;;;;;;;;;;4876650;29;20523;-67
2021/08/20 05:50:35;;;;;;;3.58;2.47;;;;;;;;;;4876586;29;20085;-68
2021/08/20 05:53:02;;;;;;;4.93;2.90;;;;;;;;;;4875395;29;20065;-66
2021/08/20 05:55:31;;;;;;;5.60;3.33;;;;;;;;;;4859202;29;20076;-66
2021/08/20 05:57:58;;;;;;;9.35;3.95;;;;;;;;;;4874627;29;20486;-66
2021/08/20 06:00:25;;;;;;;4.88;2.40;;;;;;;;;;4874469;29;20088;-66
2021/08/20 06:02:52;;;;;;;4.30;2.78;;;;;;;;;;4876033;29;20080;-66
2021/08/20 06:05:19;;;;;;;5.03;3.40;;;;;;;;;;4890182;29;20060;-66
2021/08/20 06:07:46;;;;;;;4.18;2.75;;;;;;;;;;4875098;29;20493;-66
2021/08/20 06:10:13;;;;;;;5.95;2.88;;;;;;;;;;4874626;29;20522;-66
2021/08/20 06:12:39;;;;;;;4.65;2.88;;;;;;;;;;4858057;29;20053;-66
2021/08/20 06:15:06;;;;;;;8.65;3.28;;;;;;;;;;4855912;29;20420;-66
2021/08/20 06:17:33;;;;;;;6.70;3.55;;;;;;;;;;4857080;29;20049;-66
2021/08/20 06:20:00;;;;;;;3.55;2.67;;;;;;;;;;4869010;29;20092;-66
2021/08/20 06:22:26;;;;;;;7.53;2.90;;;;;;;;;;4895392;29;20135;-67
2021/08/20 06:24:53;;;;;;;6.15;3.25;;;;;;;;;;4894017;29;20048;-66
2021/08/20 06:27:23;;;;;;;4.75;3.30;;;;;;;;;;4878754;29;20080;-66
2021/08/20 06:29:49;;;;;;;6.38;3.58;;;;;;;;;;4879125;29;20152;-66
2021/08/20 06:32:16;;;;;;;7.05;5.05;;;;;;;;;;4877387;29;20091;-67
2021/08/20 06:34:42;;;;;;;7.78;4.88;;;;;;;;;;4878949;29;20084;-67
2021/08/20 06:37:09;;;;;;;14.57;5.85;;;;;;;;;;4877587;29;20057;-67
2021/08/20 06:39:36;;;;;;;8.05;4.50;;;;;;;;;;4877203;29;20130;-66
2021/08/20 06:42:02;;;;;;;9.15;3.97;;;;;;;;;;4880944;29;20072;-67
2021/08/20 06:44:29;;;;;;;6.78;3.83;;;;;;;;;;4882331;29;20108;-67
2021/08/20 06:46:56;;;;;;;4.88;3.03;;;;;;;;;;4878472;29;20096;-67
2021/08/20 06:49:22;;;;;;;6.10;3.47;;;;;;;;;;4879669;29;20056;-67
2021/08/20 06:51:49;;;;;;;5.85;3.70;;;;;;;;;;4888756;29;20100;-67
2021/08/20 06:54:15;;;;;;;9.48;3.40;;;;;;;;;;4897335;29;20057;-67
2021/08/20 06:56:42;;;;;;;10.40;3.92;;;;;;;;;;4897125;29;20052;-66
2021/08/20 06:59:09;;;;;;;5.45;3.70;;;;;;;;;;4896790;29;20091;-66
2021/08/20 07:01:35;;;;;;;3.78;3.10;;;;;;;;;;4890997;29;20228;-66
2021/08/20 07:04:02;;;;;;;5.60;3.47;;;;;;;;;;4878511;29;20064;-66
2021/08/20 07:06:29;;;;;;;4.53;3.10;;;;;;;;;;4878272;29;20449;-68
2021/08/20 07:08:56;;;;;;;7.68;3.63;;;;;;;;;;4878334;29;20049;-67
2021/08/20 07:11:23;;;;;;;4.80;3.40;;;;;;;;;;4872203;29;20048;-66
2021/08/20 07:13:51;;;;;;;6.32;3.65;;;;;;;;;;4890057;29;20128;-68
2021/08/20 07:16:17;;;;;;;6.38;3.33;;;;;;;;;;4867726;29;20085;-67
2021/08/20 07:18:44;;;;;;;4.90;3.28;;;;;;;;;;4865362;29;20052;-66
2021/08/20 07:21:11;;;;;;;4.78;3.22;;;;;;;;;;4865784;29;20048;-68
2021/08/20 07:23:37;;;;;;;4.90;4.30;;;;;;;;;;4868210;29;20049;-67
2021/08/20 07:26:05;;;;;;;5.10;4.18;;;;;;;;;;4888319;29;20088;-68
2021/08/20 07:28:31;;;;;;;5.03;4.00;;;;;;;;;;4875780;29;20076;-68
2021/08/20 07:30:58;;;;;;;6.00;4.43;;;;;;;;;;4871958;29;20101;-68
2021/08/20 07:33:25;;;;;;;5.25;4.40;;;;;;;;;;4865865;29;20057;-70
2021/08/20 07:35:52;;;;;;;5.53;4.03;;;;;;;;;;4877768;29;20098;-69
2021/08/20 07:38:18;;;;;;;6.35;4.07;;;;;;;;;;4870187;29;20046;-70
2021/08/20 07:40:45;;;;;;;6.93;4.50;;;;;;;;;;4892027;23;20049;-69
2021/08/20 07:43:12;;;;;;;5.80;4.80;;;;;;;;;;4855647;29;20454;-70
2021/08/20 07:45:39;;;;;;;5.80;4.60;;;;;;;;;;4864387;29;20054;-70
2021/08/20 07:48:06;;;;;;;5.25;4.75;;;;;;;;;;4863199;29;20509;-71
2021/08/20 07:50:33;;;;;;;6.25;5.10;;;;;;;;;;4849493;29;20057;-66
2021/08/20 07:52:59;;;;;;;9.20;5.22;;;;;;;;;;4849247;29;20056;-66
2021/08/20 07:55:26;;;;;;;7.38;5.03;;;;;;;;;;4847356;29;20046;-65
2021/08/20 07:57:54;;;;;;;6.25;5.65;;;;;;;;;;4847897;29;20077;-64
2021/08/20 08:00:22;;;;;;;8.88;5.13;;;;;;;;;;4849977;29;20091;-64
2021/08/20 08:02:49;;;;;;;8.55;5.28;;;;;;;;;;4849334;29;20052;-64
2021/08/20 08:05:17;;;;;;;7.13;5.05;;;;;;;;;;4847009;29;20053;-65
2021/08/20 08:07:44;;;;;;;7.10;5.40;;;;;;;;;;4869869;29;20204;-65
2021/08/20 08:10:11;;;;;;;9.05;5.80;;;;;;;;;;4849524;29;20536;-64
2021/08/20 08:12:38;;;;;;;6.47;4.85;;;;;;;;;;4859821;29;20053;-65
2021/08/20 08:15:07;;;;;;;8.15;5.25;;;;;;;;;;4856194;29;20086;-65
2021/08/20 08:17:35;;;;;;;6.50;5.05;;;;;;;;;;4857633;29;20517;-64
2021/08/20 08:20:09;;;;;;;6.18;5.30;;;;;;;;;;4872998;24;20069;-67
2021/08/20 08:22:45;;;;;;;10.10;5.70;;;;;;;;;;4872203;29;20061;-67
2021/08/20 08:25:12;;;;;;;6.63;5.15;;;;;;;;;;4859127;29;20057;-68
2021/08/20 08:27:58;;;;;;;8.57;5.03;;;;;;;;;;4858901;29;20092;-68
2021/08/20 08:30:27;;;;;;;8.07;5.22;;;;;;;;;;4854715;29;20501;-68
2021/08/20 08:32:55;;;;;;;8.38;5.60;;;;;;;;;;4839418;29;20053;-67
2021/08/20 08:35:22;;;;;;;5.65;4.70;;;;;;;;;;4838880;29;20060;-69
2021/08/20 08:37:49;;;;;;;6.53;5.05;;;;;;;;;;4838954;29;20053;-67
2021/08/20 08:40:16;;;;;;;8.13;4.90;;;;;;;;;;4840554;29;20089;-68
2021/08/20 08:42:43;;;;;;;6.70;5.13;;;;;;;;;;4838218;29;20053;-74
2021/08/20 08:45:14;;;;;;;8.05;5.57;;;;;;;;;;4832140;29;20080;-74
2021/08/20 08:47:40;;;;;;;6.65;5.72;;;;;;;;;;4853967;29;20100;-73
2021/08/20 08:50:08;;;;;;;9.95;5.95;;;;;;;;;;4840040;29;20061;-74
2021/08/20 08:52:51;;;;;;;7.82;5.57;;;;;;;;;;4839523;29;20097;-72
2021/08/20 08:55:29;;;;;;;7.15;5.18;;;;;;;;;;4828335;29;20137;-70
2021/08/20 08:57:57;;;;;;;6.90;5.30;;;;;;;;;;4840117;29;20109;-72
2021/08/20 09:00:28;;;;;;;7.25;6.15;;;;;;;;;;4854102;29;20085;-71
2021/08/20 09:02:56;;;;;;;6.63;5.95;;;;;;;;;;4850735;29;20073;-70
2021/08/20 09:05:27;;;;;;;6.35;5.07;;;;;;;;;;4840102;29;20058;-69
2021/08/20 09:07:54;;;;;;;8.30;5.30;;;;;;;;;;4841564;29;20524;-72
2021/08/20 09:10:22;;;;;;;5.32;4.55;;;;;;;;;;4840346;29;20081;-72
2021/08/20 09:12:49;;;;;;;5.80;5.00;;;;;;;;;;4839645;29;20574;-72
2021/08/20 09:15:32;;;;;;;6.47;3.67;;;;;;;;;;4839076;29;20069;-72
2021/08/20 09:18:03;;;;;;;6.10;4.55;;;;;;;;;;4837806;29;20639;-72
2021/08/20 09:20:34;;;;;;;8.98;4.22;;;;;;;;;;4839779;29;20097;-72
2021/08/20 09:23:02;;;;;;;6.88;4.60;;;;;;;;;;4840422;29;20134;-69
2021/08/20 09:25:44;;;;;;;4.93;3.80;;;;;;;;;;4838946;29;20279;-72
2021/08/20 09:28:17;;;;;;;6.40;4.70;;;;;;;;;;4839946;29;20521;-68
2021/08/20 09:30:56;;;;;;;6.38;4.78;;;;;;;;;;4839295;29;20410;-71
2021/08/20 09:33:42;;;;;;;6.75;5.10;;;;;;;;;;4839495;29;20049;-74
2021/08/20 09:36:14;;;;;;;5.70;4.65;;;;;;;;;;4839831;29;20092;-72
2021/08/20 09:38:57;;;;;;;4.65;3.92;;;;;;;;;;4852248;29;20062;-72
2021/08/20 09:41:33;;;;;;;4.57;3.63;;;;;;;;;;4838239;29;20118;-74
2021/08/20 09:44:03;;;;;;;4.97;3.22;;;;;;;;;;4830197;29;20053;-74
2021/08/20 09:46:43;;;;;;;4.55;3.55;;;;;;;;;;4838024;29;20069;-75
2021/08/20 09:49:12;;;;;;;4.95;3.85;;;;;;;;;;4853539;29;20095;-71
2021/08/20 09:51:49;;;;;;;3.75;3.45;;;;;;;;;;4839546;29;20050;-70
2021/08/20 09:54:30;;;;;;;4.18;3.50;;;;;;;;;;4843637;29;20058;-71
2021/08/20 09:57:00;;;;;;;6.45;4.18;;;;;;;;;;4855820;29;20466;-71
2021/08/20 09:59:29;;;;;;;4.65;3.38;;;;;;;;;;4843268;29;20050;-67
2021/08/20 10:01:58;;;;;;;4.97;3.97;;;;;;;;;;4839617;29;20467;-65
2021/08/20 10:04:25;;;;;;;4.82;3.80;;;;;;;;;;4857148;29;20413;-65
2021/08/20 10:06:51;;;;;;;6.32;3.80;;;;;;;;;;4857157;29;20042;-65
2021/08/20 10:09:20;;;;;;;8.27;3.80;;;;;;;;;;4858442;29;20095;-65
2021/08/20 10:11:52;;;;;;;4.53;3.28;;;;;;;;;;4842268;29;20090;-69
2021/08/20 10:14:20;;;;;;;5.50;3.07;;;;;;;;;;4842144;29;20069;-67
2021/08/20 10:16:47;;;;;;;5.85;3.75;;;;;;;;;;4840877;29;20474;-66
2021/08/20 10:19:13;;;;;;;3.88;3.50;;;;;;;;;;4841427;29;20122;-65
2021/08/20 10:21:41;;;;;;;3.50;2.60;;;;;;;;;;4840576;29;20073;-65
2021/08/20 10:24:10;;;;;;;3.40;2.80;;;;;;;;;;4840921;29;20166;-65
2021/08/20 10:26:51;;;;;;;5.30;3.20;;;;;;;;;;4840331;29;20397;-65
2021/08/20 10:29:25;;;;;;;5.15;2.65;;;;;;;;;;4839919;29;20064;-66
2021/08/20 10:31:51;;;;;;;5.60;3.00;;;;;;;;;;4840425;29;20071;-65
2021/08/20 10:34:30;;;;;;;5.72;3.85;;;;;;;;;;4854840;29;20125;-65
2021/08/20 10:37:17;;;;;;;3.95;3.20;;;;;;;;;;4840274;29;20106;-65
2021/08/20 10:39:46;;;;;;;8.57;3.30;;;;;;;;;;4840335;29;20470;-65
2021/08/20 10:42:13;;;;;;;3.42;2.95;;;;;;;;;;4840851;29;20093;-65
2021/08/20 10:44:52;;;;;;;4.47;3.05;;;;;;;;;;4840953;29;20054;-65
2021/08/20 10:47:26;;;;;;;3.30;2.83;;;;;;;;;;4839746;29;20074;-65
2021/08/20 10:50:13;;;;;;;4.85;3.17;;;;;;;;;;4840303;29;20050;-66
2021/08/20 10:52:43;;;;;;;3.05;2.45;;;;;;;;;;4840814;29;20574;-65
2021/08/20 10:55:14;;;;;;;4.05;2.60;;;;;;;;;;4840918;29;20478;-66
2021/08/20 10:57:42;;;;;;;5.68;2.75;;;;;;;;;;4840188;29;20081;-66
2021/08/20 11:00:26;;;;;;;4.43;2.97;;;;;;;;;;4840362;29;20430;-65
2021/08/20 11:02:57;;;;;;;3.30;2.92;;;;;;;;;;4851084;29;20050;-65
2021/08/20 11:05:41;;;;;;;4.13;2.67;;;;;;;;;;4837847;29;20064;-68
2021/08/20 11:08:26;;;;;;;3.42;2.25;;;;;;;;;;4843313;29;20306;-73
2021/08/20 11:10:54;;;;;;;6.38;2.20;;;;;;;;;;4841534;29;20518;-71
2021/08/20 11:13:20;;;;;;;3.63;2.17;;;;;;;;;;4842745;29;20518;-72
2021/08/20 11:15:48;;;;;;;3.47;2.47;;;;;;;;;;4840423;29;20076;-73
2021/08/20 11:18:15;;;;;;;2.30;2.08;;;;;;;;;;4842530;29;20509;-72
2021/08/20 11:20:43;;;;;;;3.45;2.47;;;;;;;;;;4840923;29;20057;-71
2021/08/20 11:23:10;;;;;;;2.30;2.10;;;;;;;;;;4839159;29;20509;-72
2021/08/20 11:25:40;;;;;;;2.50;2.17;;;;;;;;;;4840083;29;20053;-69
2021/08/20 11:28:20;;;;;;;2.58;2.38;;;;;;;;;;4841830;29;20085;-71
2021/08/20 11:30:56;;;;;;;3.63;2.40;;;;;;;;;;4855584;29;20140;-71
2021/08/20 11:33:31;;;;;;;4.40;2.55;;;;;;;;;;4840575;29;20088;-71
2021/08/20 11:36:03;;;;;;;2.75;2.45;;;;;;;;;;4839684;29;20050;-71
2021/08/20 11:38:33;;;;;;;3.67;2.50;;;;;;;;;;4853608;29;20053;-71
2021/08/20 11:41:24;;;;;;;2.58;2.38;;;;;;;;;;4841893;29;20438;-72
2021/08/20 11:43:59;;;;;;;2.30;2.10;;;;;;;;;;4841350;29;20137;-71
2021/08/20 11:46:45;;;;;;;3.45;2.30;;;;;;;;;;4836014;29;20096;-72
2021/08/20 11:49:22;;;;;;;2.67;2.47;;;;;;;;;;4840931;29;20092;-66
2021/08/20 11:51:50;;;;;;;4.45;2.10;;;;;;;;;;4842199;29;20577;-65
2021/08/20 11:54:17;;;;;;;4.90;2.00;;;;;;;;;;4841480;29;20057;-65
2021/08/20 11:56:53;;;;;;;6.28;2.58;;;;;;;;;;4832342;29;20087;-67
2021/08/20 11:59:21;;;;;;;2.30;2.10;;;;;;;;;;4841279;29;20566;-67
2021/08/20 12:01:53;;;;;;;3.05;2.45;;;;;;;;;;4840994;29;20054;-68
2021/08/20 12:04:38;;;;;;;3.63;2.60;;;;;;;;;;4841511;29;20062;-66
2021/08/20 12:07:05;;;;;;;2.92;2.33;;;;;;;;;;4840279;29;20050;-71
2021/08/20 12:09:32;;;;;;;2.40;2.20;;;;;;;;;;4840348;29;20394;-67
2021/08/20 12:11:58;;;;;;;2.83;2.38;;;;;;;;;;4841137;29;20046;-67
2021/08/20 12:14:27;;;;;;;3.05;2.67;;;;;;;;;;4851938;29;20081;-67
2021/08/20 12:16:56;;;;;;;4.07;2.78;;;;;;;;;;4853074;29;20058;-67
2021/08/20 12:19:30;;;;;;;2.28;2.08;;;;;;;;;;4840933;29;20069;-68
2021/08/20 12:22:04;;;;;;;2.85;2.47;;;;;;;;;;4839684;29;20536;-69
2021/08/20 12:24:30;;;;;;;2.97;2.67;;;;;;;;;;4840394;29;20075;-64
2021/08/20 12:27:16;;;;;;;2.40;2.17;;;;;;;;;;4840771;29;20049;-65
2021/08/20 12:29:49;;;;;;;2.25;2.05;;;;;;;;;;4837829;29;20106;-73
2021/08/20 12:32:20;;;;;;;2.78;2.53;;;;;;;;;;4830096;29;20106;-72
2021/08/20 12:34:58;;;;;;;3.35;2.30;;;;;;;;;;4835678;29;20065;-72
2021/08/20 12:37:28;;;;;;;2.63;2.08;;;;;;;;;;4839329;29;20573;-74
2021/08/20 12:40:06;;;;;;;4.35;2.20;;;;;;;;;;4853963;29;20114;-68
2021/08/20 12:42:42;;;;;;;2.08;1.80;;;;;;;;;;4840333;29;20459;-68
2021/08/20 12:45:16;;;;;;;4.22;2.20;;;;;;;;;;4851522;29;20089;-68
2021/08/20 12:48:06;;;;;;;3.83;2.17;;;;;;;;;;4839795;29;20066;-68
2021/08/20 12:50:35;;;;;;;2.85;2.42;;;;;;;;;;4839310;29;20127;-66
2021/08/20 12:53:08;;;;;;;3.05;2.03;;;;;;;;;;4840287;29;20293;-66
2021/08/20 12:55:38;;;;;;;3.72;2.03;;;;;;;;;;4839983;29;20061;-67
2021/08/20 12:58:06;;;;;;;2.42;2.20;;;;;;;;;;4839590;29;20086;-66
2021/08/20 13:00:37;;;;;;;3.75;2.28;;;;;;;;;;4853650;29;20089;-66
2021/08/20 13:03:12;;;;;;;2.63;2.08;;;;;;;;;;4840329;29;20054;-66
2021/08/20 13:05:59;;;;;;;3.60;2.20;;;;;;;;;;4836867;29;20180;-67
2021/08/20 13:08:27;;;;;;;2.55;2.20;;;;;;;;;;4839048;29;20050;-67
2021/08/20 13:10:55;;;;;;;2.53;2.17;;;;;;;;;;4839656;29;20150;-67
2021/08/20 13:13:22;;;;;;;2.38;1.88;;;;;;;;;;4838908;29;20280;-67
2021/08/20 13:15:49;;;;;;;2.63;1.88;;;;;;;;;;4837714;29;20488;-74
2021/08/20 13:18:16;;;;;;;3.85;1.80;;;;;;;;;;4838336;29;20183;-72
2021/08/20 13:20:49;;;;;;;2.35;2.15;;;;;;;;;;4853063;29;20165;-72
2021/08/20 13:23:16;;;;;;;3.20;2.85;;;;;;;;;;4838937;29;20114;-73
2021/08/20 13:25:43;;;;;;;3.33;2.05;;;;;;;;;;4836378;29;20092;-73
2021/08/20 13:28:10;;;;;;;3.33;2.05;;;;;;;;;;4838478;29;20506;-73
2021/08/20 13:30:38;;;;;;;2.60;1.80;;;;;;;;;;4839470;29;20085;-74
2021/08/20 13:33:04;;;;;;;2.53;2.15;;;;;;;;;;4839072;29;20072;-72
2021/08/20 13:35:31;;;;;;;2.00;1.80;;;;;;;;;;4839315;29;20085;-72
2021/08/20 13:37:58;;;;;;;2.45;1.90;;;;;;;;;;4839268;29;20073;-71
2021/08/20 13:40:25;;;;;;;2.03;1.77;;;;;;;;;;4840512;29;20098;-73
2021/08/20 13:42:51;;;;;;;3.47;2.17;;;;;;;;;;4838470;29;20054;-73
2021/08/20 13:45:19;;;;;;;2.25;2.03;;;;;;;;;;4851157;29;20425;-71
2021/08/20 13:47:49;;;;;;;2.58;2.05;;;;;;;;;;4840034;29;20061;-75
2021/08/20 13:50:18;;;;;;;2.20;1.90;;;;;;;;;;4832094;29;20066;-75
2021/08/20 13:52:45;;;;;;;2.58;2.28;;;;;;;;;;4853230;29;20311;-77
2021/08/20 13:55:12;;;;;;;2.38;1.90;;;;;;;;;;4840128;29;20142;-75
2021/08/20 13:57:38;;;;;;;3.88;2.33;;;;;;;;;;4851566;29;20085;-75
2021/08/20 14:00:06;;;;;;;3.70;1.95;;;;;;;;;;4838225;29;20514;-71
2021/08/20 14:02:32;;;;;;;3.28;1.67;;;;;;;;;;4837682;29;20129;-65
2021/08/20 14:04:59;;;;;;;2.40;2.20;;;;;;;;;;4839253;29;20109;-65
2021/08/20 14:07:26;;;;;;;1.67;1.48;;;;;;;;;;4839455;29;20528;-65
2021/08/20 14:09:53;;;;;;;3.35;2.50;;;;;;;;;;4838510;29;20502;-69
2021/08/20 14:12:21;;;;;;;2.13;1.92;;;;;;;;;;4839765;29;20110;-69
2021/08/20 14:14:48;;;;;;;3.47;2.90;;;;;;;;;;4839369;29;20062;-72
2021/08/20 14:17:15;;;;;;;2.90;2.05;;;;;;;;;;4834480;29;20093;-72
2021/08/20 14:19:41;;;;;;;3.40;2.03;;;;;;;;;;4839056;29;20491;-73
2021/08/20 14:22:08;;;;;;;2.15;1.85;;;;;;;;;;4902558;23;20080;-70
2021/08/20 14:24:34;;;;;;;2.70;1.83;;;;;;;;;;4902890;29;20082;-71
2021/08/20 14:27:01;;;;;;;3.05;2.15;;;;;;;;;;4903397;29;20092;-69
2021/08/20 14:29:28;;;;;;;2.47;2.25;;;;;;;;;;4902126;29;20112;-70
2021/08/20 14:31:56;;;;;;;2.83;2.13;;;;;;;;;;4902829;29;20080;-71
2021/08/20 14:34:22;;;;;;;2.78;2.15;;;;;;;;;;4903685;29;20570;-72
2021/08/20 14:36:49;;;;;;;3.33;2.53;;;;;;;;;;4900306;29;20061;-70
2021/08/20 14:39:16;;;;;;;2.33;2.13;;;;;;;;;;4904376;29;20456;-71
2021/08/20 14:41:42;;;;;;;3.20;2.40;;;;;;;;;;4906130;29;20061;-71
2021/08/20 14:44:10;;;;;;;2.92;2.30;;;;;;;;;;4906741;29;20052;-70
2021/08/20 14:46:37;;;;;;;2.83;2.45;;;;;;;;;;4903836;29;20052;-71
2021/08/20 14:49:04;;;;;;;3.83;2.22;;;;;;;;;;4907466;29;20049;-70
2021/08/20 14:51:31;;;;;;;5.03;2.40;;;;;;;;;;4909754;29;20139;-71